Time;durP1;ratioP1;P1;durP2;ratioP2;P2;SDS_P1;SDS_P2;PMS_P1;PMS_P2;Temp;Humidity;BMP_temperature;BMP_pressure;BME280_temperature;BME280_humidity;BME280_pressure;Samples;Min_cycle;Max_cycle;Signal;HPM_P1;HPM_P2
2022/12/27 00:01:49;;;;;;;14.57;7.15;;;;;;;;;;5078495;28;20060;-69
2022/12/27 00:04:15;;;;;;;15.15;6.68;;;;;;;;;;5077267;28;20439;-68
2022/12/27 00:06:41;;;;;;;13.63;6.70;;;;;;;;;;5074846;28;20045;-71
2022/12/27 00:09:07;;;;;;;13.57;6.13;;;;;;;;;;5077359;28;20047;-68
2022/12/27 00:11:34;;;;;;;21.50;7.22;;;;;;;;;;5079804;28;20048;-67
2022/12/27 00:14:04;;;;;;;13.57;6.43;;;;;;;;;;5078536;28;20054;-70
2022/12/27 00:16:31;;;;;;;14.05;7.03;;;;;;;;;;5082552;28;20069;-70
2022/12/27 00:18:58;;;;;;;9.88;5.97;;;;;;;;;;5070467;28;20146;-69
2022/12/27 00:21:24;;;;;;;12.73;6.53;;;;;;;;;;5079652;28;20330;-68
2022/12/27 00:23:53;;;;;;;13.98;6.65;;;;;;;;;;5062433;28;20052;-71
2022/12/27 00:26:23;;;;;;;12.50;6.93;;;;;;;;;;5085423;28;20051;-69
2022/12/27 00:28:49;;;;;;;17.77;7.10;;;;;;;;;;5084406;28;20455;-71
2022/12/27 00:31:17;;;;;;;16.40;6.80;;;;;;;;;;5082680;28;20048;-69
2022/12/27 00:33:45;;;;;;;18.90;7.07;;;;;;;;;;5041882;28;20056;-70
2022/12/27 00:36:14;;;;;;;12.23;6.93;;;;;;;;;;5081061;28;20126;-70
2022/12/27 00:38:40;;;;;;;20.58;7.47;;;;;;;;;;5063831;28;20071;-70
2022/12/27 00:41:06;;;;;;;11.70;6.85;;;;;;;;;;5083328;28;20276;-70
2022/12/27 00:43:33;;;;;;;10.57;6.70;;;;;;;;;;5086280;28;20489;-68
2022/12/27 00:46:00;;;;;;;15.57;7.00;;;;;;;;;;5085547;28;20181;-71
2022/12/27 00:48:26;;;;;;;25.60;7.35;;;;;;;;;;5083662;28;20051;-69
2022/12/27 00:51:00;;;;;;;15.43;7.32;;;;;;;;;;5088113;28;20055;-69
2022/12/27 00:53:28;;;;;;;11.98;6.65;;;;;;;;;;5067156;28;20144;-69
2022/12/27 00:55:54;;;;;;;10.38;6.28;;;;;;;;;;5085946;28;20044;-68
2022/12/27 00:58:20;;;;;;;8.77;6.05;;;;;;;;;;5084702;28;20044;-69
2022/12/27 01:00:47;;;;;;;11.10;5.90;;;;;;;;;;5085211;28;20063;-67
2022/12/27 01:03:14;;;;;;;17.55;6.60;;;;;;;;;;5088972;28;20048;-67
2022/12/27 01:05:40;;;;;;;10.38;6.13;;;;;;;;;;5083084;28;20047;-67
2022/12/27 01:08:06;;;;;;;11.13;5.35;;;;;;;;;;5082264;28;20418;-69
2022/12/27 01:10:32;;;;;;;8.93;5.00;;;;;;;;;;5062893;28;20056;-68
2022/12/27 01:13:03;;;;;;;8.98;5.40;;;;;;;;;;5087735;28;20509;-69
2022/12/27 01:15:29;;;;;;;8.00;4.43;;;;;;;;;;5073860;28;20049;-70
2022/12/27 01:17:55;;;;;;;10.32;4.57;;;;;;;;;;5082228;28;20064;-67
2022/12/27 01:20:21;;;;;;;9.90;4.38;;;;;;;;;;5068848;28;20059;-69
2022/12/27 01:22:47;;;;;;;8.13;4.10;;;;;;;;;;5083769;28;20051;-69
2022/12/27 01:25:13;;;;;;;6.18;3.30;;;;;;;;;;5079456;28;20881;-68
2022/12/27 01:27:39;;;;;;;9.32;3.70;;;;;;;;;;5077464;28;20052;-69
2022/12/27 01:30:06;;;;;;;7.43;3.28;;;;;;;;;;5073156;28;20100;-67
2022/12/27 01:32:35;;;;;;;5.20;2.85;;;;;;;;;;5083167;28;20460;-74
2022/12/27 01:35:01;;;;;;;6.40;3.55;;;;;;;;;;5082348;28;20043;-68
2022/12/27 01:37:28;;;;;;;8.60;4.10;;;;;;;;;;5081192;28;20041;-72
2022/12/27 01:39:54;;;;;;;5.95;3.35;;;;;;;;;;5081369;28;20071;-71
2022/12/27 01:45:17;;;;;;;8.70;4.45;;;;;;;;;;5080535;28;20600;-69
2022/12/27 01:47:48;;;;;;;8.95;3.70;;;;;;;;;;5074701;28;20121;-71
2022/12/27 01:50:35;;;;;;;6.72;3.08;;;;;;;;;;5080479;28;20058;-69
2022/12/27 01:53:18;;;;;;;6.68;3.08;;;;;;;;;;5084349;28;20058;-68
2022/12/27 01:55:50;;;;;;;7.43;3.00;;;;;;;;;;5077766;28;20048;-68
2022/12/27 01:58:39;;;;;;;5.10;3.15;;;;;;;;;;5077863;28;20048;-70
2022/12/27 02:01:10;;;;;;;7.45;2.92;;;;;;;;;;5082230;28;20148;-69
2022/12/27 02:03:45;;;;;;;6.40;3.03;;;;;;;;;;5083318;28;20071;-69
2022/12/27 02:06:13;;;;;;;5.43;2.70;;;;;;;;;;5082039;28;20048;-69
2022/12/27 02:08:44;;;;;;;5.25;2.20;;;;;;;;;;5084548;28;20043;-69
2022/12/27 02:11:12;;;;;;;5.00;1.90;;;;;;;;;;5074535;28;20044;-68
2022/12/27 02:13:42;;;;;;;4.88;2.35;;;;;;;;;;5078949;28;20059;-68
2022/12/27 02:16:15;;;;;;;6.28;2.65;;;;;;;;;;5085769;28;20492;-66
2022/12/27 02:18:41;;;;;;;4.13;2.00;;;;;;;;;;5083575;28;20056;-68
2022/12/27 02:21:54;;;;;;;5.05;1.85;;;;;;;;;;5091964;28;20048;-68
2022/12/27 02:24:41;;;;;;;4.65;2.15;;;;;;;;;;5085498;28;20097;-70
2022/12/27 02:27:17;;;;;;;4.10;1.90;;;;;;;;;;5082243;28;20127;-70
2022/12/27 02:29:55;;;;;;;3.85;2.10;;;;;;;;;;5074821;28;20517;-68
2022/12/27 02:32:39;;;;;;;5.10;2.15;;;;;;;;;;5083570;28;20322;-68
2022/12/27 02:35:25;;;;;;;6.95;2.22;;;;;;;;;;5082427;28;20059;-67
2022/12/27 02:38:01;;;;;;;3.97;1.80;;;;;;;;;;5062847;28;20052;-68
2022/12/27 02:53:05;;;;;;;5.82;2.50;;;;;;;;;;5081349;28;20107;-67
2022/12/27 02:55:40;;;;;;;3.05;1.80;;;;;;;;;;5075218;28;20075;-69
2022/12/27 02:58:21;;;;;;;2.88;1.95;;;;;;;;;;5072970;28;20504;-67
2022/12/27 03:04:18;;;;;;;7.00;2.30;;;;;;;;;;5078888;28;20054;-66
2022/12/27 03:06:44;;;;;;;;;;;;;;;;;;5042902;28;20051;-66
2022/12/27 03:15:55;;;;;;;6.72;3.15;;;;;;;;;;5079488;28;20048;-66
2022/12/27 03:18:29;;;;;;;9.23;2.88;;;;;;;;;;5081912;28;20048;-67
2022/12/27 03:26:33;;;;;;;5.53;2.90;;;;;;;;;;5080631;28;20090;-68
2022/12/27 03:34:40;;;;;;;6.93;2.83;;;;;;;;;;5077304;28;20055;-67
2022/12/27 03:40:39;;;;;;;5.88;3.10;;;;;;;;;;5080802;28;20066;-68
2022/12/27 03:43:14;;;;;;;11.02;3.00;;;;;;;;;;5060199;28;20074;-68
2022/12/27 03:48:52;;;;;;;6.93;2.85;;;;;;;;;;5081844;28;20180;-68
2022/12/27 03:51:22;;;;;;;6.43;2.72;;;;;;;;;;5076824;28;20044;-66
2022/12/27 03:53:51;;;;;;;9.10;3.00;;;;;;;;;;5081869;28;20052;-67
2022/12/27 03:56:17;;;;;;;6.50;2.67;;;;;;;;;;5078787;28;20052;-65
2022/12/27 03:58:43;;;;;;;6.30;2.30;;;;;;;;;;5083743;28;20196;-66
2022/12/27 04:01:09;;;;;;;5.65;2.25;;;;;;;;;;5082246;28;20047;-67
2022/12/27 04:03:35;;;;;;;6.60;2.40;;;;;;;;;;5082578;28;20452;-66
2022/12/27 04:06:01;;;;;;;5.75;2.00;;;;;;;;;;5080993;28;20489;-66
2022/12/27 04:35:52;;;;;;;4.78;1.67;;;;;;;;;;5080294;28;20057;-67
2022/12/27 04:38:19;;;;;;;3.42;1.50;;;;;;;;;;5079488;28;20044;-66
2022/12/27 04:55:07;;;;;;;2.13;1.33;;;;;;;;;;5079672;28;20794;-66
2022/12/27 04:57:33;;;;;;;2.67;1.77;;;;;;;;;;5083474;28;20047;-68
2022/12/27 05:02:43;;;;;;;1.80;1.30;;;;;;;;;;5081571;28;20064;-67
2022/12/27 05:05:10;;;;;;;8.30;1.75;;;;;;;;;;5080506;28;20755;-67
2022/12/27 05:15:55;;;;;;;6.50;1.50;;;;;;;;;;5076797;28;20061;-67
2022/12/27 05:18:21;;;;;;;4.93;1.67;;;;;;;;;;5080140;28;20055;-66
2022/12/27 05:20:47;;;;;;;4.10;1.75;;;;;;;;;;5057765;28;20067;-68
2022/12/27 05:25:57;;;;;;;3.03;1.50;;;;;;;;;;5079564;28;20109;-67
2022/12/27 05:28:23;;;;;;;5.75;1.50;;;;;;;;;;5079965;28;20044;-69
2022/12/27 05:30:49;;;;;;;3.00;1.60;;;;;;;;;;5082615;28;20131;-70
2022/12/27 05:33:15;;;;;;;5.22;1.90;;;;;;;;;;5086777;28;20190;-67
2022/12/27 05:35:41;;;;;;;5.55;1.83;;;;;;;;;;5081091;28;20044;-67
2022/12/27 05:38:07;;;;;;;7.70;2.00;;;;;;;;;;5075744;28;21011;-67
2022/12/27 05:40:34;;;;;;;7.00;1.90;;;;;;;;;;5080683;28;20047;-69
2022/12/27 05:43:01;;;;;;;4.70;1.65;;;;;;;;;;5079583;28;20476;-69
2022/12/27 05:45:28;;;;;;;3.92;2.10;;;;;;;;;;5080033;28;20079;-67
2022/12/27 05:47:54;;;;;;;5.22;1.58;;;;;;;;;;5083749;28;20040;-69
2022/12/27 05:50:20;;;;;;;4.50;1.73;;;;;;;;;;5081746;28;20177;-68
2022/12/27 05:52:46;;;;;;;7.05;1.80;;;;;;;;;;5083253;28;20138;-68
2022/12/27 05:55:12;;;;;;;3.25;1.40;;;;;;;;;;5077968;28;20064;-67
2022/12/27 05:57:38;;;;;;;4.18;1.75;;;;;;;;;;5082314;28;20048;-67
2022/12/27 06:00:05;;;;;;;7.00;1.80;;;;;;;;;;5078577;28;20054;-69
2022/12/27 06:02:31;;;;;;;4.50;1.67;;;;;;;;;;5076498;28;20135;-68
2022/12/27 06:04:57;;;;;;;4.53;2.00;;;;;;;;;;5075117;28;20558;-68
2022/12/27 06:07:23;;;;;;;6.43;1.90;;;;;;;;;;5058288;28;20044;-68
2022/12/27 06:09:49;;;;;;;4.10;1.48;;;;;;;;;;5078335;28;20074;-67
2022/12/27 06:12:15;;;;;;;5.18;1.70;;;;;;;;;;5083772;28;20044;-67
2022/12/27 06:14:41;;;;;;;8.13;1.80;;;;;;;;;;5080922;28;20048;-68
2022/12/27 06:17:06;;;;;;;4.38;2.15;;;;;;;;;;5081222;28;20044;-68
2022/12/27 06:19:33;;;;;;;5.43;1.90;;;;;;;;;;5081416;28;20231;-67
2022/12/27 06:21:58;;;;;;;4.93;1.60;;;;;;;;;;5082446;28;20508;-68
2022/12/27 06:24:24;;;;;;;5.68;1.83;;;;;;;;;;5083423;28;20900;-68
2022/12/27 06:26:50;;;;;;;2.88;1.88;;;;;;;;;;5075598;28;20104;-68
2022/12/27 06:29:16;;;;;;;5.82;2.25;;;;;;;;;;5081652;28;20391;-68
2022/12/27 06:31:42;;;;;;;7.82;2.13;;;;;;;;;;5078154;28;20085;-66
2022/12/27 06:34:09;;;;;;;5.20;1.90;;;;;;;;;;5077814;28;20117;-67
2022/12/27 06:36:35;;;;;;;5.20;1.90;;;;;;;;;;5086181;28;20072;-68
2022/12/27 06:39:01;;;;;;;6.03;1.50;;;;;;;;;;5083275;28;20055;-68
2022/12/27 06:41:28;;;;;;;6.55;2.00;;;;;;;;;;5079728;28;20075;-67
2022/12/27 06:43:56;;;;;;;7.95;1.80;;;;;;;;;;5075627;28;20052;-67
2022/12/27 06:46:25;;;;;;;7.85;1.98;;;;;;;;;;5072080;28;20510;-67
2022/12/27 06:48:52;;;;;;;5.32;1.60;;;;;;;;;;5075538;28;20044;-68
2022/12/27 06:51:19;;;;;;;4.68;1.60;;;;;;;;;;5078950;28;20048;-66
2022/12/27 06:53:48;;;;;;;6.43;2.10;;;;;;;;;;5074061;28;20435;-67
2022/12/27 06:56:16;;;;;;;7.47;2.17;;;;;;;;;;5080488;28;20174;-67
2022/12/27 06:58:43;;;;;;;11.27;1.70;;;;;;;;;;5084159;28;20096;-66
2022/12/27 07:01:16;;;;;;;10.25;1.90;;;;;;;;;;5064568;28;20852;-66
2022/12/27 07:03:42;;;;;;;9.32;2.00;;;;;;;;;;5081180;28;20048;-66
2022/12/27 07:06:12;;;;;;;5.65;2.75;;;;;;;;;;5066256;28;20051;-67
2022/12/27 07:08:38;;;;;;;4.35;1.50;;;;;;;;;;5072752;28;20059;-66
2022/12/27 07:11:07;;;;;;;8.57;2.22;;;;;;;;;;5085049;28;20105;-68
2022/12/27 07:13:36;;;;;;;7.38;1.85;;;;;;;;;;5076419;28;20074;-66
2022/12/27 07:16:07;;;;;;;6.93;1.83;;;;;;;;;;5064266;28;20493;-68
2022/12/27 07:18:34;;;;;;;6.90;1.65;;;;;;;;;;5075430;28;20102;-68
2022/12/27 07:21:21;;;;;;;7.22;1.80;;;;;;;;;;5072283;28;20071;-68
2022/12/27 07:23:47;;;;;;;5.65;1.60;;;;;;;;;;5071464;28;20056;-67
2022/12/27 07:26:18;;;;;;;3.58;1.75;;;;;;;;;;5083740;28;20503;-68
2022/12/27 07:28:45;;;;;;;7.03;2.03;;;;;;;;;;5068678;28;20063;-66
2022/12/27 07:31:14;;;;;;;7.35;2.92;;;;;;;;;;5054955;28;20048;-67
2022/12/27 07:33:42;;;;;;;4.93;2.05;;;;;;;;;;5074204;28;20087;-67
2022/12/27 07:36:13;;;;;;;7.03;2.63;;;;;;;;;;5070627;28;20429;-67
2022/12/27 07:38:39;;;;;;;10.48;2.95;;;;;;;;;;5077926;28;20074;-66
2022/12/27 07:41:05;;;;;;;18.25;3.10;;;;;;;;;;5064039;28;20044;-70
2022/12/27 07:43:32;;;;;;;12.93;2.85;;;;;;;;;;5076638;28;20048;-67
2022/12/27 07:46:05;;;;;;;6.75;2.92;;;;;;;;;;5077126;28;20055;-73
2022/12/27 07:48:31;;;;;;;7.07;2.85;;;;;;;;;;5079637;28;20453;-69
2022/12/27 07:50:57;;;;;;;9.15;2.47;;;;;;;;;;5077096;28;20055;-69
2022/12/27 07:53:23;;;;;;;6.03;2.88;;;;;;;;;;5078636;28;20087;-68
2022/12/27 07:55:49;;;;;;;13.80;3.05;;;;;;;;;;5077437;28;20139;-71
2022/12/27 07:58:17;;;;;;;11.23;2.67;;;;;;;;;;5075507;28;20056;-67
2022/12/27 08:00:49;;;;;;;9.18;2.80;;;;;;;;;;5075019;28;20461;-67
2022/12/27 08:03:15;;;;;;;13.40;2.35;;;;;;;;;;5073050;28;20121;-68
2022/12/27 08:05:46;;;;;;;12.05;2.78;;;;;;;;;;5073598;28;20040;-68
2022/12/27 08:08:18;;;;;;;9.80;2.30;;;;;;;;;;5074255;28;20071;-69
2022/12/27 08:10:44;;;;;;;11.02;2.60;;;;;;;;;;5075072;28;20175;-66
2022/12/27 08:13:10;;;;;;;11.60;2.20;;;;;;;;;;5081215;28;20454;-65
2022/12/27 08:15:37;;;;;;;9.20;2.70;;;;;;;;;;5067724;28;20051;-69
2022/12/27 08:18:03;;;;;;;6.72;2.35;;;;;;;;;;5076379;28;20071;-69
2022/12/27 08:20:29;;;;;;;10.77;2.13;;;;;;;;;;5054252;28;20059;-68
2022/12/27 08:22:55;;;;;;;13.40;2.85;;;;;;;;;;5078880;28;20576;-68
2022/12/27 08:25:21;;;;;;;8.60;2.55;;;;;;;;;;5079321;28;20044;-70
2022/12/27 08:27:48;;;;;;;16.52;3.53;;;;;;;;;;5074496;28;20062;-69
2022/12/27 08:30:13;;;;;;;8.10;3.10;;;;;;;;;;5077280;28;20048;-67
2022/12/27 08:32:40;;;;;;;13.85;3.70;;;;;;;;;;5073095;28;20066;-68
2022/12/27 08:35:06;;;;;;;17.73;3.47;;;;;;;;;;5075958;28;20045;-74
2022/12/27 08:37:32;;;;;;;12.13;3.80;;;;;;;;;;5078245;28;20233;-70
2022/12/27 08:39:58;;;;;;;22.38;3.95;;;;;;;;;;5078321;28;20135;-70
2022/12/27 08:42:25;;;;;;;20.30;3.75;;;;;;;;;;5079273;28;20854;-68
2022/12/27 08:44:50;;;;;;;16.45;3.97;;;;;;;;;;5077538;28;20059;-68
2022/12/27 08:47:18;;;;;;;17.52;4.28;;;;;;;;;;5075361;28;20052;-67
2022/12/27 08:49:44;;;;;;;13.25;3.80;;;;;;;;;;5073471;28;20056;-65
2022/12/27 08:52:10;;;;;;;13.48;3.58;;;;;;;;;;5080488;28;20048;-67
2022/12/27 08:54:36;;;;;;;11.93;4.00;;;;;;;;;;5055558;28;20044;-69
2022/12/27 08:57:02;;;;;;;12.18;3.90;;;;;;;;;;5086236;28;20059;-67
2022/12/27 08:59:28;;;;;;;10.95;4.20;;;;;;;;;;5085683;28;20037;-69
2022/12/27 09:01:54;;;;;;;7.68;3.72;;;;;;;;;;5076517;28;20058;-72
2022/12/27 09:04:20;;;;;;;13.88;3.63;;;;;;;;;;5077363;28;20043;-72
2022/12/27 09:06:46;;;;;;;16.13;4.43;;;;;;;;;;5073377;28;20499;-72
2022/12/27 09:09:13;;;;;;;13.55;3.92;;;;;;;;;;5081813;28;20689;-67
2022/12/27 09:11:39;;;;;;;14.15;4.30;;;;;;;;;;5080041;28;20045;-70
2022/12/27 09:14:05;;;;;;;11.23;3.60;;;;;;;;;;5082428;28;20503;-69
2022/12/27 09:16:35;;;;;;;14.55;3.45;;;;;;;;;;5076618;28;20493;-70
2022/12/27 09:19:02;;;;;;;19.10;4.20;;;;;;;;;;5070614;28;20041;-71
2022/12/27 09:21:30;;;;;;;14.85;3.83;;;;;;;;;;5075819;28;20052;-68
2022/12/27 09:23:56;;;;;;;12.98;3.03;;;;;;;;;;5063672;28;20052;-70
2022/12/27 09:26:25;;;;;;;11.20;3.60;;;;;;;;;;5082789;28;20055;-71
2022/12/27 09:28:51;;;;;;;13.40;3.83;;;;;;;;;;5081321;28;20058;-71
2022/12/27 09:31:19;;;;;;;11.48;3.10;;;;;;;;;;5076137;28;20056;-72
2022/12/27 09:33:46;;;;;;;12.10;3.45;;;;;;;;;;5081152;28;20051;-67
2022/12/27 09:36:20;;;;;;;21.40;4.75;;;;;;;;;;5085701;28;20063;-67
2022/12/27 09:38:47;;;;;;;17.58;4.25;;;;;;;;;;5075380;28;20110;-67
2022/12/27 09:41:18;;;;;;;19.33;5.30;;;;;;;;;;5075067;28;20058;-69
2022/12/27 09:44:21;;;;;;;25.80;4.03;;;;;;;;;;5084800;28;20416;-67
2022/12/27 09:46:55;;;;;;;18.70;4.13;;;;;;;;;;5083253;28;20043;-68
2022/12/27 09:49:49;;;;;;;18.75;4.03;;;;;;;;;;5080016;28;20134;-69
2022/12/27 09:52:21;;;;;;;17.65;4.15;;;;;;;;;;5065985;28;20055;-67
2022/12/27 09:54:56;;;;;;;8.65;3.75;;;;;;;;;;5083946;28;20045;-65
2022/12/27 09:57:32;;;;;;;13.85;4.18;;;;;;;;;;5082016;28;20362;-68
2022/12/27 10:00:00;;;;;;;13.30;3.78;;;;;;;;;;5078503;28;20493;-68
2022/12/27 10:02:27;;;;;;;9.90;3.40;;;;;;;;;;5074669;28;20048;-65
2022/12/27 10:04:55;;;;;;;13.25;3.90;;;;;;;;;;5076429;28;20071;-68
2022/12/27 10:07:27;;;;;;;14.48;4.00;;;;;;;;;;5068300;28;20481;-66
2022/12/27 10:10:13;;;;;;;15.45;4.13;;;;;;;;;;5082237;28;20167;-66
2022/12/27 10:12:41;;;;;;;15.50;4.43;;;;;;;;;;5086177;28;20124;-72
2022/12/27 10:15:32;;;;;;;10.02;4.00;;;;;;;;;;5080848;28;20093;-71
2022/12/27 10:18:14;;;;;;;9.30;4.40;;;;;;;;;;5077266;28;20913;-67
2022/12/27 10:21:03;;;;;;;12.48;4.40;;;;;;;;;;5077043;28;20103;-66
2022/12/27 10:23:35;;;;;;;11.45;4.00;;;;;;;;;;5079864;28;20657;-66
2022/12/27 10:26:10;;;;;;;10.15;4.05;;;;;;;;;;5077050;28;20074;-71
2022/12/27 10:28:41;;;;;;;16.67;4.72;;;;;;;;;;5082842;28;20049;-73
2022/12/27 10:34:41;;;;;;;9.95;3.60;;;;;;;;;;5052761;28;20491;-68
2022/12/27 10:37:14;;;;;;;10.48;3.67;;;;;;;;;;5056778;28;20101;-69
2022/12/27 10:39:41;;;;;;;8.55;4.00;;;;;;;;;;5051483;28;20044;-69
2022/12/27 10:42:28;;;;;;;21.75;4.15;;;;;;;;;;5057829;28;20048;-68
2022/12/27 10:45:25;;;;;;;13.63;4.05;;;;;;;;;;5049492;28;20059;-67
2022/12/27 10:47:57;;;;;;;14.73;4.55;;;;;;;;;;5058408;28;20048;-70
2022/12/27 10:50:26;;;;;;;15.25;4.65;;;;;;;;;;5055449;28;20679;-70
2022/12/27 10:52:52;;;;;;;10.05;4.60;;;;;;;;;;5057342;28;20081;-65
2022/12/27 10:55:47;;;;;;;15.23;4.05;;;;;;;;;;5059860;28;20048;-70
2022/12/27 10:58:30;;;;;;;;;;;;;;;;;;5043921;28;20345;-68
2022/12/27 11:00:57;;;;;;;14.68;4.50;;;;;;;;;;5062149;28;20350;-69
2022/12/27 11:03:25;;;;;;;14.70;4.25;;;;;;;;;;5060035;28;20045;-67
2022/12/27 11:06:05;;;;;;;13.02;4.43;;;;;;;;;;5059476;28;20418;-70
2022/12/27 11:08:32;;;;;;;8.25;3.40;;;;;;;;;;5061378;28;20036;-68
2022/12/27 11:11:13;;;;;;;33.75;15.90;;;;;;;;;;5063136;28;20063;-70
2022/12/27 11:13:38;;;;;;;22.50;7.68;;;;;;;;;;5056320;28;20052;-68
2022/12/27 11:16:11;;;;;;;13.48;4.07;;;;;;;;;;5057444;28;20087;-69
2022/12/27 11:18:47;;;;;;;7.45;3.30;;;;;;;;;;5060221;28;20036;-70
2022/12/27 11:21:14;;;;;;;7.78;2.92;;;;;;;;;;5059335;28;20105;-71
2022/12/27 11:23:48;;;;;;;9.88;2.83;;;;;;;;;;5048005;28;20040;-69
2022/12/27 11:26:23;;;;;;;9.82;3.05;;;;;;;;;;5057659;28;20093;-70
2022/12/27 11:28:53;;;;;;;10.02;2.90;;;;;;;;;;5053605;28;20103;-67
2022/12/27 11:31:38;;;;;;;10.02;2.88;;;;;;;;;;5063693;28;20067;-69
2022/12/27 11:34:11;;;;;;;7.35;2.92;;;;;;;;;;5056257;28;20516;-70
2022/12/27 11:36:40;;;;;;;14.77;3.58;;;;;;;;;;5061153;28;20079;-68
2022/12/27 11:39:27;;;;;;;11.18;3.33;;;;;;;;;;5061541;28;20052;-67
2022/12/27 11:41:55;;;;;;;11.23;3.40;;;;;;;;;;5053561;28;20044;-66
2022/12/27 11:44:27;;;;;;;12.77;3.28;;;;;;;;;;5057744;28;20082;-71
2022/12/27 11:47:25;;;;;;;12.35;2.92;;;;;;;;;;5062092;28;20049;-66
2022/12/27 11:50:25;;;;;;;9.65;3.30;;;;;;;;;;5056739;28;20102;-68
2022/12/27 11:53:14;;;;;;;13.30;3.55;;;;;;;;;;5057449;28;20040;-72
2022/12/27 11:55:52;;;;;;;7.25;3.55;;;;;;;;;;5054523;28;20752;-69
2022/12/27 11:58:50;;;;;;;9.40;3.35;;;;;;;;;;5060098;28;20854;-69
2022/12/27 12:01:34;;;;;;;13.30;3.30;;;;;;;;;;5063265;28;20069;-69
2022/12/27 12:04:16;;;;;;;10.15;3.45;;;;;;;;;;5062296;28;20049;-68
2022/12/27 12:07:00;;;;;;;12.38;3.45;;;;;;;;;;5060505;28;20050;-71
2022/12/27 12:09:29;;;;;;;;;;;;;;;;;;5053427;28;20098;-68
2022/12/27 12:12:03;;;;;;;6.63;2.50;;;;;;;;;;5069925;28;19924;-68
2022/12/27 12:14:56;;;;;;;9.23;2.75;;;;;;;;;;5062916;28;20056;-65
2022/12/27 12:17:37;;;;;;;10.35;2.83;;;;;;;;;;5061356;28;20494;-69
2022/12/27 12:20:26;;;;;;;5.25;2.33;;;;;;;;;;5060777;28;20067;-70
2022/12/27 12:23:05;;;;;;;10.20;2.80;;;;;;;;;;5060899;28;20053;-71
2022/12/27 12:25:49;;;;;;;13.32;2.95;;;;;;;;;;5061761;28;20809;-68
2022/12/27 12:28:18;;;;;;;9.13;3.13;;;;;;;;;;5064053;28;20413;-70
2022/12/27 12:31:01;;;;;;;11.43;3.78;;;;;;;;;;5063550;28;20065;-68
2022/12/27 12:33:47;;;;;;;12.75;4.45;;;;;;;;;;5062336;28;20061;-70
2022/12/27 12:36:48;;;;;;;8.90;2.97;;;;;;;;;;5065214;28;20056;-70
2022/12/27 12:39:37;;;;;;;13.00;3.53;;;;;;;;;;5054332;28;20052;-71
2022/12/27 12:42:22;;;;;;;15.07;3.78;;;;;;;;;;5061266;28;20246;-71
2022/12/27 12:45:03;;;;;;;14.10;4.10;;;;;;;;;;5061849;28;20139;-69
2022/12/27 12:47:51;;;;;;;10.00;3.60;;;;;;;;;;5058967;28;20074;-69
2022/12/27 12:50:45;;;;;;;16.40;4.47;;;;;;;;;;5064837;28;20045;-67
2022/12/27 12:53:29;;;;;;;14.07;4.90;;;;;;;;;;5066682;28;20463;-68
2022/12/27 12:56:16;;;;;;;13.98;5.18;;;;;;;;;;5063488;28;20498;-69
2022/12/27 12:59:33;;;;;;;19.52;5.07;;;;;;;;;;5061454;28;20787;-72
2022/12/27 13:02:26;;;;;;;13.45;4.70;;;;;;;;;;5060822;28;20617;-69
2022/12/27 13:05:18;;;;;;;14.20;4.57;;;;;;;;;;5058840;28;20137;-68
2022/12/27 13:07:53;;;;;;;14.32;5.68;;;;;;;;;;5058957;28;20140;-68
2022/12/27 13:10:43;;;;;;;14.15;4.97;;;;;;;;;;5059767;28;20045;-68
2022/12/27 13:13:33;;;;;;;13.15;5.57;;;;;;;;;;5052898;28;20056;-76
2022/12/27 13:16:11;;;;;;;12.95;5.53;;;;;;;;;;5046488;28;20049;-71
2022/12/27 13:19:15;;;;;;;18.80;5.35;;;;;;;;;;5057546;28;20493;-69
2022/12/27 13:22:11;;;;;;;13.90;4.75;;;;;;;;;;5059261;28;20044;-75
2022/12/27 13:25:14;;;;;;;17.00;5.18;;;;;;;;;;5064042;28;20408;-72
2022/12/27 13:28:05;;;;;;;14.35;4.97;;;;;;;;;;5061727;28;20048;-71
2022/12/27 13:30:46;;;;;;;16.17;4.80;;;;;;;;;;5055370;28;20321;-71
2022/12/27 13:33:28;;;;;;;12.13;4.40;;;;;;;;;;5047896;28;20053;-69
2022/12/27 13:36:06;;;;;;;13.25;4.60;;;;;;;;;;5056732;28;20471;-71
2022/12/27 13:38:41;;;;;;;16.33;4.68;;;;;;;;;;5061434;28;20056;-74
2022/12/27 13:41:10;;;;;;;11.80;4.68;;;;;;;;;;5064996;28;20048;-69
2022/12/27 13:44:05;;;;;;;17.27;4.78;;;;;;;;;;5066548;28;20048;-71
2022/12/27 13:47:03;;;;;;;10.15;4.05;;;;;;;;;;5044313;28;20048;-70
2022/12/27 13:50:09;;;;;;;19.58;4.65;;;;;;;;;;5060791;28;20052;-69
2022/12/27 13:52:38;;;;;;;9.38;4.00;;;;;;;;;;5065122;28;20493;-72
2022/12/27 13:55:26;;;;;;;14.23;4.30;;;;;;;;;;5059856;28;20060;-70
2022/12/27 13:58:30;;;;;;;19.02;6.22;;;;;;;;;;5059879;28;20696;-70
2022/12/27 14:01:29;;;;;;;11.05;5.10;;;;;;;;;;5053684;28;20123;-69
2022/12/27 14:04:06;;;;;;;12.93;5.28;;;;;;;;;;5060146;28;20040;-71
2022/12/27 14:07:17;;;;;;;12.57;4.55;;;;;;;;;;5056556;28;20052;-70
2022/12/27 14:10:07;;;;;;;11.98;4.57;;;;;;;;;;5041033;28;20041;-71
2022/12/27 14:12:33;;;;;;;16.60;4.20;;;;;;;;;;5059741;28;20044;-70
2022/12/27 14:15:03;;;;;;;17.50;4.32;;;;;;;;;;5059603;28;20819;-70
2022/12/27 14:17:43;;;;;;;17.88;4.15;;;;;;;;;;5049944;28;20068;-70
2022/12/27 14:20:41;;;;;;;14.00;3.80;;;;;;;;;;5061037;28;20060;-72
2022/12/27 14:23:38;;;;;;;15.23;4.15;;;;;;;;;;5057071;28;20046;-70
2022/12/27 14:26:25;;;;;;;12.98;3.72;;;;;;;;;;5047997;28;20073;-71
2022/12/27 14:29:26;;;;;;;10.10;3.90;;;;;;;;;;5061965;28;20053;-71
2022/12/27 14:32:25;;;;;;;10.73;4.55;;;;;;;;;;5043493;28;20752;-70
2022/12/27 14:35:28;;;;;;;9.10;3.72;;;;;;;;;;5056466;28;20470;-71
2022/12/27 14:38:21;;;;;;;11.35;3.83;;;;;;;;;;5059657;28;20107;-71
2022/12/27 14:41:15;;;;;;;14.85;4.15;;;;;;;;;;5061171;28;20060;-70
2022/12/27 14:44:12;;;;;;;11.98;3.88;;;;;;;;;;5073806;28;20047;-72
2022/12/27 14:47:16;;;;;;;18.90;3.83;;;;;;;;;;5052802;28;20044;-70
2022/12/27 14:50:29;;;;;;;9.07;3.30;;;;;;;;;;5050317;28;20052;-69
2022/12/27 14:53:20;;;;;;;13.38;4.07;;;;;;;;;;5022051;28;20516;-72
2022/12/27 14:55:54;;;;;;;12.35;3.78;;;;;;;;;;5060236;28;20048;-71
2022/12/27 14:58:42;;;;;;;15.55;3.58;;;;;;;;;;5057007;28;20553;-69
2022/12/27 15:01:40;;;;;;;12.15;3.88;;;;;;;;;;5060508;28;20041;-70
2022/12/27 15:05:02;;;;;;;13.05;3.60;;;;;;;;;;4992912;28;20249;-70
2022/12/27 15:07:28;;;;;;;11.77;3.30;;;;;;;;;;4943893;28;20066;-70
2022/12/27 15:10:31;;;;;;;15.93;3.85;;;;;;;;;;4943950;28;20161;-71
2022/12/27 15:13:05;;;;;;;13.30;2.95;;;;;;;;;;4948295;28;20622;-70
2022/12/27 15:15:56;;;;;;;;;;;;;;;;;;4952099;28;20066;-69
2022/12/27 15:19:18;;;;;;;15.60;3.28;;;;;;;;;;4941503;28;19923;-72
2022/12/27 15:21:50;;;;;;;16.90;3.17;;;;;;;;;;4884879;29;20450;-69
2022/12/27 15:24:22;;;;;;;15.75;2.78;;;;;;;;;;4897251;29;20052;-72
2022/12/27 15:27:33;;;;;;;14.75;3.35;;;;;;;;;;4885578;29;20060;-72
2022/12/27 15:30:20;;;;;;;8.02;2.65;;;;;;;;;;4882792;29;20131;-69
2022/12/27 15:32:56;;;;;;;10.18;3.08;;;;;;;;;;4887140;29;20052;-70
2022/12/27 15:35:24;;;;;;;14.80;3.08;;;;;;;;;;4886000;29;20199;-71
2022/12/27 15:38:21;;;;;;;11.90;3.15;;;;;;;;;;4893227;29;20093;-70
2022/12/27 15:41:05;;;;;;;9.10;2.85;;;;;;;;;;4957032;28;20111;-69
2022/12/27 15:43:40;;;;;;;11.63;5.55;;;;;;;;;;4948108;28;20509;-69
2022/12/27 15:46:45;;;;;;;12.00;4.40;;;;;;;;;;4960361;28;20453;-71
2022/12/27 15:49:44;;;;;;;11.43;4.30;;;;;;;;;;4959274;28;20142;-72
2022/12/27 15:52:35;;;;;;;16.58;3.75;;;;;;;;;;5005433;28;20072;-68
2022/12/27 15:55:22;;;;;;;10.15;3.53;;;;;;;;;;5036823;28;20059;-70
2022/12/27 15:58:04;;;;;;;8.00;3.80;;;;;;;;;;5042020;28;20045;-71
2022/12/27 16:00:31;;;;;;;11.82;4.43;;;;;;;;;;5061628;28;20059;-70
2022/12/27 16:03:02;;;;;;;11.00;4.50;;;;;;;;;;5052986;28;20045;-69
2022/12/27 16:05:40;;;;;;;11.48;4.55;;;;;;;;;;5055970;28;20053;-69
2022/12/27 16:08:06;;;;;;;14.25;4.55;;;;;;;;;;5057772;28;20118;-71
2022/12/27 16:10:47;;;;;;;11.60;4.60;;;;;;;;;;5060848;28;20052;-71
2022/12/27 16:13:21;;;;;;;14.38;4.55;;;;;;;;;;5060385;28;20048;-68
2022/12/27 16:15:51;;;;;;;11.25;5.13;;;;;;;;;;5035036;28;20131;-70
2022/12/27 16:18:20;;;;;;;10.30;4.05;;;;;;;;;;5051500;28;20069;-71
2022/12/27 16:21:01;;;;;;;8.75;4.05;;;;;;;;;;5058639;28;20093;-68
2022/12/27 16:23:37;;;;;;;11.10;3.97;;;;;;;;;;5058765;28;20079;-71
2022/12/27 16:26:19;;;;;;;9.00;4.15;;;;;;;;;;5057207;28;20121;-69
2022/12/27 16:29:06;;;;;;;11.05;4.10;;;;;;;;;;5056995;28;20056;-70
2022/12/27 16:31:34;;;;;;;19.02;5.28;;;;;;;;;;5056172;28;20057;-69
2022/12/27 16:34:30;;;;;;;13.50;3.92;;;;;;;;;;5054788;28;20844;-68
2022/12/27 16:36:58;;;;;;;12.35;4.30;;;;;;;;;;5043946;28;20044;-69
2022/12/27 16:39:47;;;;;;;11.48;6.10;;;;;;;;;;5058095;28;20055;-66
2022/12/27 16:42:17;;;;;;;10.43;4.82;;;;;;;;;;5053159;28;20048;-70
2022/12/27 16:45:01;;;;;;;9.68;4.65;;;;;;;;;;5041884;28;20052;-69
2022/12/27 16:47:49;;;;;;;20.42;5.38;;;;;;;;;;5049905;28;20160;-69
2022/12/27 16:50:20;;;;;;;12.77;5.20;;;;;;;;;;5053680;28;20055;-70
2022/12/27 16:53:31;;;;;;;12.93;5.15;;;;;;;;;;5059039;28;20049;-71
2022/12/27 16:56:10;;;;;;;14.02;5.03;;;;;;;;;;5058789;28;20052;-71
2022/12/27 16:58:37;;;;;;;12.98;6.22;;;;;;;;;;5060574;28;20048;-70
2022/12/27 17:01:25;;;;;;;17.50;6.82;;;;;;;;;;5062455;28;20090;-68
2022/12/27 17:03:55;;;;;;;12.75;5.95;;;;;;;;;;5058331;28;20049;-71
2022/12/27 17:06:21;;;;;;;17.60;6.72;;;;;;;;;;5050158;28;20048;-70